Time;durP1;ratioP1;P1;durP2;ratioP2;P2;SDS_P1;SDS_P2;PMS_P1;PMS_P2;Temp;Humidity;BMP_temperature;BMP_pressure;BME280_temperature;BME280_humidity;BME280_pressure;Samples;Min_cycle;Max_cycle;Signal;HPM_P1;HPM_P2
2022/04/13 00:00:56;;;;;;;5.10;3.67;;;7.10;99.90;;;;;;4160931;28;20357;-48
2022/04/13 00:02:58;;;;;;;4.55;4.35;;;6.90;99.90;;;;;;4161287;28;20412;-50
2022/04/13 00:05:01;;;;;;;5.88;5.43;;;6.80;99.90;;;;;;4161242;28;20046;-49
2022/04/13 00:07:04;;;;;;;6.15;5.65;;;6.80;99.90;;;;;;4160901;28;20091;-47
2022/04/13 00:09:10;;;;;;;7.32;5.60;;;6.80;99.90;;;;;;4171094;28;20037;-49
2022/04/13 00:11:13;;;;;;;4.75;4.55;;;6.80;99.90;;;;;;4163138;28;20045;-48
2022/04/13 00:13:15;;;;;;;5.35;5.05;;;7.00;99.90;;;;;;4175959;28;20049;-48
2022/04/13 00:15:17;;;;;;;5.65;5.25;;;7.10;99.90;;;;;;4165165;28;20400;-48
2022/04/13 00:17:22;;;;;;;5.20;4.90;;;7.10;99.90;;;;;;4162620;28;20065;-48
2022/04/13 00:19:24;;;;;;;4.80;4.53;;;7.10;99.90;;;;;;4164715;28;20048;-47
2022/04/13 00:21:26;;;;;;;5.00;4.63;;;6.90;99.90;;;;;;4160742;28;20033;-47
2022/04/13 00:23:28;;;;;;;5.97;5.68;;;6.70;99.90;;;;;;4160922;28;20041;-47
2022/04/13 00:25:30;;;;;;;6.93;6.43;;;6.70;99.90;;;;;;4160674;28;20715;-47
2022/04/13 00:27:42;;;;;;;4.72;4.53;;;6.70;99.90;;;;;;4160586;28;20054;-48
2022/04/13 00:29:44;;;;;;;5.07;4.88;;;6.70;99.90;;;;;;4160912;28;20067;-47
2022/04/13 00:31:46;;;;;;;3.97;3.88;;;6.70;99.90;;;;;;4161478;28;20048;-50
2022/04/13 00:33:48;;;;;;;4.25;3.97;;;6.70;99.90;;;;;;4160734;28;20037;-46
2022/04/13 00:35:52;;;;;;;4.55;4.35;;;6.70;99.90;;;;;;4160634;28;20408;-48
2022/04/13 00:37:54;;;;;;;5.35;5.03;;;6.60;99.90;;;;;;4160621;28;20493;-48
2022/04/13 00:39:57;;;;;;;4.32;4.13;;;6.60;99.90;;;;;;4160548;28;20490;-47
2022/04/13 00:42:01;;;;;;;3.42;3.22;;;6.60;99.90;;;;;;4162105;28;20038;-48
2022/04/13 00:44:11;;;;;;;4.70;4.50;;;6.70;99.90;;;;;;4163436;28;20091;-48
2022/04/13 00:46:13;;;;;;;3.85;3.75;;;6.70;99.90;;;;;;4160102;28;20460;-48
2022/04/13 00:48:32;;;;;;;3.80;3.50;;;6.60;99.90;;;;;;4159412;28;20080;-47
2022/04/13 00:50:34;;;;;;;4.90;4.53;;;6.60;99.90;;;;;;4163920;28;20037;-47
2022/04/13 00:52:40;;;;;;;4.30;4.07;;;6.60;99.90;;;;;;4160500;28;20077;-48
2022/04/13 00:54:44;;;;;;;4.53;4.22;;;6.50;99.90;;;;;;4160269;28;20077;-48
2022/04/13 00:56:49;;;;;;;6.05;5.50;;;6.50;99.90;;;;;;4160284;28;20060;-48
2022/04/13 00:58:53;;;;;;;5.18;4.88;;;6.50;99.90;;;;;;4159399;28;20045;-47
2022/04/13 01:00:56;;;;;;;4.72;4.32;;;6.50;99.90;;;;;;4160843;28;20030;-50
2022/04/13 01:02:59;;;;;;;4.28;3.90;;;6.50;99.90;;;;;;4160237;28;20037;-47
2022/04/13 01:05:05;;;;;;;4.15;3.90;;;6.50;99.90;;;;;;4160041;28;20064;-47
2022/04/13 01:07:09;;;;;;;4.65;4.45;;;6.50;99.90;;;;;;4160792;28;20034;-47
2022/04/13 01:09:12;;;;;;;5.90;5.57;;;6.40;99.90;;;;;;4175215;28;20063;-48
2022/04/13 01:11:15;;;;;;;4.90;4.70;;;6.40;99.90;;;;;;4176457;28;20397;-48
2022/04/13 01:13:18;;;;;;;4.75;4.53;;;6.40;99.90;;;;;;4160158;28;20037;-48
2022/04/13 01:15:20;;;;;;;3.38;3.17;;;6.40;99.90;;;;;;4160221;28;20492;-47
2022/04/13 01:17:23;;;;;;;4.15;3.90;;;6.50;99.90;;;;;;4162607;28;20080;-48
2022/04/13 01:19:25;;;;;;;4.45;4.07;;;6.60;99.90;;;;;;4165405;28;20256;-50
2022/04/13 01:21:41;;;;;;;3.67;3.42;;;6.60;99.90;;;;;;4160109;28;20701;-50
2022/04/13 01:23:43;;;;;;;4.15;4.00;;;6.60;99.90;;;;;;4160213;28;20041;-48
2022/04/13 01:25:50;;;;;;;3.78;3.58;;;6.60;99.90;;;;;;4160251;28;20116;-48
2022/04/13 01:27:52;;;;;;;3.65;3.45;;;6.70;99.90;;;;;;4163237;28;20369;-48
2022/04/13 01:29:54;;;;;;;4.88;4.60;;;6.60;99.90;;;;;;4160198;28;20037;-47
2022/04/13 01:31:57;;;;;;;4.70;4.40;;;6.60;99.90;;;;;;4160236;28;20042;-47
2022/04/13 01:34:00;;;;;;;4.65;4.43;;;6.60;99.90;;;;;;4159866;28;20179;-48
2022/04/13 01:36:02;;;;;;;;;;;6.60;99.90;;;;;;4160926;28;20065;-48
2022/04/13 01:38:06;;;;;;;4.70;4.45;;;6.40;99.90;;;;;;4159960;28;19971;-51
2022/04/13 01:40:09;;;;;;;5.28;4.38;;;6.40;99.90;;;;;;4159968;28;20041;-49
2022/04/13 01:42:11;;;;;;;4.65;4.50;;;6.30;99.90;;;;;;4159921;28;20417;-50
2022/04/13 01:44:15;;;;;;;4.53;4.32;;;6.20;99.90;;;;;;4162791;28;20045;-49
2022/04/13 01:46:17;;;;;;;5.18;4.97;;;6.10;99.90;;;;;;4159367;28;20052;-49
2022/04/13 01:48:19;;;;;;;6.07;3.78;;;6.10;99.90;;;;;;4159449;28;20065;-48
2022/04/13 01:50:21;;;;;;;4.32;4.22;;;6.10;99.90;;;;;;4167786;28;20710;-48
2022/04/13 01:52:23;;;;;;;4.65;4.25;;;6.20;99.90;;;;;;4175876;28;20041;-48
2022/04/13 01:54:25;;;;;;;4.00;3.80;;;6.10;99.90;;;;;;4162770;28;20543;-49
2022/04/13 01:56:28;;;;;;;6.25;4.70;;;6.00;99.90;;;;;;4160139;28;20065;-47
2022/04/13 01:58:31;;;;;;;4.43;4.13;;;5.90;99.90;;;;;;4159680;28;20037;-47
2022/04/13 02:00:33;;;;;;;4.80;4.60;;;5.70;99.90;;;;;;4162049;28;20037;-48
2022/04/13 02:02:36;;;;;;;5.60;5.10;;;5.60;99.90;;;;;;4163142;28;20076;-47
2022/04/13 02:04:38;;;;;;;4.20;4.00;;;5.80;99.90;;;;;;4163049;28;20049;-48
2022/04/13 02:06:40;;;;;;;4.53;4.32;;;5.80;99.90;;;;;;4163193;28;20050;-50
2022/04/13 02:08:42;;;;;;;4.18;4.07;;;5.80;99.90;;;;;;4176270;28;20055;-47
2022/04/13 02:10:44;;;;;;;5.28;5.15;;;5.70;99.90;;;;;;4163291;28;20041;-47
2022/04/13 02:12:47;;;;;;;5.32;5.03;;;5.70;99.90;;;;;;4163113;28;20092;-48
2022/04/13 02:14:50;;;;;;;6.13;5.82;;;5.80;99.90;;;;;;4162907;28;20087;-47
2022/04/13 02:16:52;;;;;;;4.22;4.00;;;5.90;99.90;;;;;;4162935;28;20045;-47
2022/04/13 02:18:54;;;;;;;4.07;3.97;;;5.90;99.90;;;;;;4169146;28;20513;-48
2022/04/13 02:20:56;;;;;;;4.53;4.32;;;5.90;99.90;;;;;;4162913;28;20152;-47
2022/04/13 02:22:58;;;;;;;4.93;4.78;;;5.90;99.90;;;;;;4162612;28;20042;-48
2022/04/13 02:25:02;;;;;;;4.82;4.53;;;5.90;99.90;;;;;;4177381;28;20041;-48
2022/04/13 02:27:05;;;;;;;5.05;4.75;;;5.90;99.90;;;;;;4162567;28;20560;-49
2022/04/13 02:29:07;;;;;;;4.75;4.55;;;5.80;99.90;;;;;;4162271;28;20501;-50
2022/04/13 02:31:09;;;;;;;7.18;4.85;;;5.70;99.90;;;;;;4162776;28;20087;-49
2022/04/13 02:33:11;;;;;;;4.22;3.92;;;5.70;99.90;;;;;;4173475;28;20447;-47
2022/04/13 02:35:13;;;;;;;4.45;4.20;;;5.70;99.90;;;;;;4170251;28;20601;-48
2022/04/13 02:37:16;;;;;;;5.00;4.70;;;5.70;99.90;;;;;;4162468;28;20119;-48
2022/04/13 02:39:18;;;;;;;;;;;5.70;99.90;;;;;;4162733;28;20041;-48
2022/04/13 02:41:20;;;;;;;4.25;3.97;;;5.70;99.90;;;;;;4162543;28;20269;-48
2022/04/13 02:43:24;;;;;;;5.05;4.78;;;5.70;99.90;;;;;;4163526;28;20467;-48
2022/04/13 02:45:26;;;;;;;10.65;5.50;;;5.80;99.90;;;;;;4162631;28;20084;-47
2022/04/13 02:47:29;;;;;;;7.15;6.32;;;5.80;99.90;;;;;;4162372;28;20037;-49
2022/04/13 02:49:31;;;;;;;5.85;4.07;;;5.90;99.90;;;;;;4163247;28;20084;-48
2022/04/13 02:51:33;;;;;;;4.75;4.47;;;5.90;99.90;;;;;;4166625;28;20038;-47
2022/04/13 02:53:35;;;;;;;4.13;3.85;;;5.80;99.90;;;;;;4162027;28;20489;-47
2022/04/13 02:55:37;;;;;;;5.20;5.00;;;5.70;99.90;;;;;;4162261;28;20119;-48
2022/04/13 02:57:39;;;;;;;5.60;5.40;;;5.70;99.90;;;;;;4162014;28;20550;-48
2022/04/13 02:59:46;;;;;;;4.88;4.70;;;5.60;99.90;;;;;;4162281;28;20552;-48
2022/04/13 03:01:49;;;;;;;5.25;4.45;;;5.60;99.90;;;;;;4161967;28;20543;-47
2022/04/13 03:03:52;;;;;;;5.53;5.10;;;5.50;99.90;;;;;;4162081;28;20069;-47
2022/04/13 03:05:54;;;;;;;4.78;4.60;;;5.40;99.90;;;;;;4177653;28;20045;-49
2022/04/13 03:07:56;;;;;;;5.38;5.15;;;5.20;99.90;;;;;;4172361;28;20056;-48
2022/04/13 03:09:59;;;;;;;4.68;4.38;;;5.20;99.90;;;;;;4166054;28;20379;-49
2022/04/13 03:12:01;;;;;;;4.00;3.90;;;5.10;99.90;;;;;;4161182;28;20048;-48
2022/04/13 03:14:04;;;;;;;5.35;4.97;;;5.00;99.90;;;;;;4161590;28;20037;-50
2022/04/13 03:16:06;;;;;;;5.03;4.78;;;4.90;99.90;;;;;;4162201;28;20115;-47
2022/04/13 03:18:08;;;;;;;4.70;4.60;;;4.80;99.90;;;;;;4166222;28;20041;-50
2022/04/13 03:20:10;;;;;;;5.20;4.88;;;4.80;99.90;;;;;;4165689;28;20588;-49
2022/04/13 03:22:12;;;;;;;5.13;4.93;;;4.70;99.90;;;;;;4161746;28;20471;-49
2022/04/13 03:24:18;;;;;;;4.68;4.47;;;4.70;99.90;;;;;;4161787;28;20037;-48
2022/04/13 03:26:20;;;;;;;4.60;4.28;;;4.70;99.90;;;;;;4163246;28;20046;-48
2022/04/13 03:28:23;;;;;;;4.07;3.97;;;4.70;99.90;;;;;;4161908;28;20080;-50
2022/04/13 03:30:25;;;;;;;5.55;5.35;;;4.80;99.90;;;;;;4162038;28;20386;-48
2022/04/13 03:32:38;;;;;;;4.68;4.57;;;4.70;99.90;;;;;;4161511;28;20041;-50
2022/04/13 03:34:40;;;;;;;5.47;5.07;;;4.70;99.90;;;;;;4167343;28;20514;-48
2022/04/13 03:36:42;;;;;;;4.18;4.07;;;4.60;99.90;;;;;;4170408;28;20042;-48
2022/04/13 03:38:44;;;;;;;4.75;4.60;;;4.70;99.90;;;;;;4161139;28;20540;-50
2022/04/13 03:40:46;;;;;;;37.10;21.63;;;4.70;99.90;;;;;;4161656;28;20049;-48
2022/04/13 03:42:48;;;;;;;13.90;12.55;;;4.70;99.90;;;;;;4161462;28;20037;-49
2022/04/13 03:44:50;;;;;;;15.60;10.48;;;4.90;99.90;;;;;;4162459;28;20045;-50
2022/04/13 03:46:52;;;;;;;8.93;8.23;;;4.70;99.90;;;;;;4161395;28;20041;-47
2022/04/13 03:48:54;;;;;;;8.05;7.65;;;4.70;99.90;;;;;;4161103;28;20072;-47
2022/04/13 03:50:57;;;;;;;7.07;6.25;;;4.80;99.90;;;;;;4165651;28;20468;-47
2022/04/13 03:52:59;;;;;;;5.00;4.80;;;4.90;99.90;;;;;;4161295;28;20417;-50
2022/04/13 03:55:04;;;;;;;4.90;4.53;;;4.80;99.90;;;;;;4161287;28;20125;-47
2022/04/13 03:57:06;;;;;;;4.60;4.50;;;4.90;99.90;;;;;;4161290;28;20052;-47
2022/04/13 03:59:09;;;;;;;5.32;5.05;;;4.90;99.90;;;;;;4160442;28;20481;-48
2022/04/13 04:01:11;;;;;;;5.32;5.13;;;5.00;99.90;;;;;;4161172;28;20289;-48
2022/04/13 04:03:13;;;;;;;5.95;5.45;;;5.10;99.90;;;;;;4161132;28;20497;-48
2022/04/13 04:05:17;;;;;;;5.35;4.93;;;4.90;99.90;;;;;;4161072;28;20484;-48
2022/04/13 04:07:19;;;;;;;6.82;6.47;;;4.90;99.90;;;;;;4163138;28;20486;-47
2022/04/13 04:09:21;;;;;;;8.60;6.85;;;4.90;99.90;;;;;;4168902;28;20041;-48
2022/04/13 04:11:23;;;;;;;8.05;7.30;;;4.80;99.90;;;;;;4164829;28;20504;-48
2022/04/13 04:13:25;;;;;;;6.70;5.88;;;4.80;99.90;;;;;;4173071;28;20061;-47
2022/04/13 04:15:28;;;;;;;8.60;7.38;;;4.90;99.90;;;;;;4160903;28;20051;-50
2022/04/13 04:17:30;;;;;;;8.48;7.65;;;4.80;99.90;;;;;;4163613;28;20037;-48
2022/04/13 04:19:32;;;;;;;7.35;6.65;;;4.60;99.90;;;;;;4160903;28;20072;-47
2022/04/13 04:21:34;;;;;;;6.30;5.90;;;4.60;99.90;;;;;;4160954;28;20517;-47
2022/04/13 04:23:36;;;;;;;;;;;4.60;99.90;;;;;;4161241;28;20084;-48
2022/04/13 04:25:38;;;;;;;7.43;5.53;;;4.50;99.90;;;;;;4163073;28;20012;-48
2022/04/13 04:27:40;;;;;;;5.72;5.30;;;4.40;99.90;;;;;;4169392;28;20099;-47
2022/04/13 04:29:42;;;;;;;5.57;5.07;;;4.30;99.90;;;;;;4166108;28;20065;-47
2022/04/13 04:31:50;;;;;;;5.78;5.45;;;4.20;99.90;;;;;;4160862;28;20068;-49
2022/04/13 04:33:53;;;;;;;5.40;5.05;;;4.10;99.90;;;;;;4160999;28;20489;-50
2022/04/13 04:35:55;;;;;;;5.30;5.20;;;4.10;99.90;;;;;;4160999;28;20100;-47
2022/04/13 04:37:57;;;;;;;5.10;4.85;;;4.10;99.90;;;;;;4160402;28;20079;-48
2022/04/13 04:40:02;;;;;;;5.82;5.45;;;4.20;99.90;;;;;;4160624;28;20037;-48
2022/04/13 04:42:05;;;;;;;6.32;5.82;;;4.30;99.90;;;;;;4160305;28;20037;-48
2022/04/13 04:44:08;;;;;;;;;;;4.30;99.90;;;;;;4161492;28;20049;-50
2022/04/13 04:46:12;;;;;;;4.45;4.20;;;4.20;99.90;;;;;;4160409;28;19967;-49
2022/04/13 04:48:14;;;;;;;6.18;4.13;;;4.20;99.90;;;;;;4159855;28;20052;-47
2022/04/13 04:50:22;;;;;;;5.50;5.15;;;4.30;99.90;;;;;;4164599;28;20038;-49
2022/04/13 04:52:25;;;;;;;6.93;6.60;;;4.30;99.90;;;;;;4160432;28;20049;-48
2022/04/13 04:54:27;;;;;;;5.30;5.07;;;4.30;99.90;;;;;;4163979;28;20037;-48
2022/04/13 04:56:29;;;;;;;5.38;5.28;;;4.20;99.90;;;;;;4166583;28;20037;-50
2022/04/13 04:58:31;;;;;;;6.90;5.07;;;4.20;99.90;;;;;;4169255;28;20459;-47
2022/04/13 05:00:36;;;;;;;5.03;4.70;;;4.20;99.90;;;;;;4160615;28;20441;-48
2022/04/13 05:02:39;;;;;;;4.70;4.60;;;4.20;99.90;;;;;;4160355;28;20045;-49
2022/04/13 05:04:41;;;;;;;;;;;4.20;99.90;;;;;;4167849;28;20044;-48
2022/04/13 05:06:43;;;;;;;4.30;4.18;;;4.20;99.90;;;;;;4172080;28;20373;-49
2022/04/13 05:08:45;;;;;;;6.97;5.13;;;4.30;99.90;;;;;;4167534;28;20092;-47
2022/04/13 05:10:51;;;;;;;4.28;4.07;;;4.30;99.90;;;;;;4162490;28;20057;-50
2022/04/13 05:12:56;;;;;;;4.82;4.70;;;4.40;99.90;;;;;;4175337;28;20041;-48
2022/04/13 05:15:03;;;;;;;4.03;3.78;;;4.40;99.90;;;;;;4159935;28;20241;-49
2022/04/13 05:17:05;;;;;;;4.68;4.35;;;4.50;99.90;;;;;;4160231;28;20048;-48
2022/04/13 05:19:07;;;;;;;3.92;3.83;;;4.50;99.90;;;;;;4162398;28;20037;-48
2022/04/13 05:21:09;;;;;;;4.07;3.97;;;4.50;99.90;;;;;;4160436;28;20042;-49
2022/04/13 05:23:11;;;;;;;2.83;2.78;;;4.50;99.90;;;;;;4160025;28;20053;-48
2022/04/13 05:25:15;;;;;;;5.68;5.28;;;4.60;99.90;;;;;;4159966;28;20049;-47
2022/04/13 05:27:18;;;;;;;6.15;5.80;;;4.60;99.90;;;;;;4159607;28;20069;-47
2022/04/13 05:29:21;;;;;;;7.63;5.75;;;4.60;99.90;;;;;;4158333;28;20071;-48
2022/04/13 05:31:24;;;;;;;6.88;5.82;;;4.50;99.90;;;;;;4160272;28;20045;-47
2022/04/13 05:33:26;;;;;;;;;;;4.60;99.90;;;;;;4160437;28;20037;-47
2022/04/13 05:35:28;;;;;;;7.38;6.78;;;4.50;99.90;;;;;;4161906;28;20169;-47
2022/04/13 05:37:31;;;;;;;7.50;6.90;;;4.40;99.90;;;;;;4163234;28;20044;-47
2022/04/13 05:39:35;;;;;;;10.50;8.90;;;4.40;99.90;;;;;;4163321;28;20033;-46
2022/04/13 05:41:37;;;;;;;7.57;7.20;;;4.50;99.90;;;;;;4167329;28;20187;-48
2022/04/13 05:43:39;;;;;;;7.85;7.30;;;4.40;99.90;;;;;;4168396;28;20037;-49
2022/04/13 05:45:41;;;;;;;10.05;9.23;;;4.50;99.90;;;;;;4173910;28;20489;-47
2022/04/13 05:47:43;;;;;;;10.55;6.05;;;4.50;99.90;;;;;;4163428;28;20042;-47
2022/04/13 05:49:45;;;;;;;6.00;5.70;;;4.60;99.90;;;;;;4165435;28;20049;-47
2022/04/13 05:51:47;;;;;;;7.65;5.07;;;4.70;99.90;;;;;;4162787;28;20037;-47
2022/04/13 05:53:49;;;;;;;6.00;5.50;;;4.80;99.90;;;;;;4163339;28;20088;-50
2022/04/13 05:55:55;;;;;;;4.82;4.68;;;4.90;99.90;;;;;;4162886;28;20041;-47
2022/04/13 05:57:58;;;;;;;3.80;3.58;;;5.10;99.90;;;;;;4163195;28;20056;-47
2022/04/13 06:00:00;;;;;;;3.20;3.00;;;5.20;99.90;;;;;;4169314;28;20037;-47
2022/04/13 06:02:02;;;;;;;3.80;3.65;;;5.30;99.90;;;;;;4162791;28;20042;-47
2022/04/13 06:04:10;;;;;;;2.90;2.80;;;5.40;99.90;;;;;;4162635;28;20413;-47
2022/04/13 06:06:12;;;;;;;3.58;3.47;;;5.50;99.90;;;;;;4173666;28;20064;-47
2022/04/13 06:08:15;;;;;;;3.20;3.10;;;5.60;99.90;;;;;;4168513;28;20044;-49
2022/04/13 06:10:19;;;;;;;2.50;2.40;;;5.70;99.90;;;;;;4162279;28;20049;-48
2022/04/13 06:12:24;;;;;;;4.20;3.53;;;5.80;99.90;;;;;;4173814;28;20107;-47
2022/04/13 06:14:26;;;;;;;7.85;4.45;;;5.90;99.90;;;;;;4165012;28;20037;-49
2022/04/13 06:16:28;;;;;;;3.15;3.08;;;6.00;99.90;;;;;;4162366;28;20040;-48
2022/04/13 06:18:31;;;;;;;3.45;3.10;;;6.10;99.90;;;;;;4161990;28;20041;-47
2022/04/13 06:20:33;;;;;;;4.03;3.90;;;6.10;99.90;;;;;;4162550;28;20336;-47
2022/04/13 06:22:42;;;;;;;5.50;4.97;;;6.20;99.90;;;;;;4161942;28;20050;-47
2022/04/13 06:24:44;;;;;;;3.50;3.30;;;6.30;99.90;;;;;;4162559;28;20042;-47
2022/04/13 06:26:46;;;;;;;2.28;2.17;;;6.50;99.90;;;;;;4163156;28;20037;-49
2022/04/13 06:28:48;;;;;;;3.15;3.05;;;6.60;99.90;;;;;;4179360;28;20044;-47
2022/04/13 06:30:50;;;;;;;3.35;3.25;;;6.60;99.90;;;;;;4164130;28;20087;-47
2022/04/13 06:32:53;;;;;;;2.78;2.67;;;6.70;99.90;;;;;;4162285;28;20046;-47
2022/04/13 06:34:58;;;;;;;2.88;2.67;;;6.80;99.90;;;;;;4162689;28;20266;-48
2022/04/13 06:37:00;;;;;;;2.50;2.42;;;6.90;99.90;;;;;;4162215;28;20037;-47
2022/04/13 06:39:02;;;;;;;2.85;2.75;;;7.10;99.90;;;;;;4162644;28;20067;-47
2022/04/13 06:41:04;;;;;;;2.88;2.78;;;7.10;99.90;;;;;;4162719;28;20560;-47
2022/04/13 06:43:10;;;;;;;3.05;2.95;;;7.20;99.90;;;;;;4163090;28;20096;-47
2022/04/13 06:45:15;;;;;;;2.72;2.53;;;7.30;99.90;;;;;;4176909;28;20527;-48
2022/04/13 06:47:18;;;;;;;3.08;2.97;;;7.30;99.90;;;;;;4160667;28;20072;-46
2022/04/13 06:49:20;;;;;;;2.95;2.72;;;7.40;99.90;;;;;;4162133;28;20509;-47
2022/04/13 06:51:24;;;;;;;2.80;2.70;;;7.50;99.90;;;;;;4161924;28;20099;-47
2022/04/13 06:53:26;;;;;;;4.28;3.97;;;7.70;99.90;;;;;;4162092;28;20098;-47
2022/04/13 06:55:28;;;;;;;6.13;2.05;;;7.90;99.90;;;;;;4162261;28;20590;-48
2022/04/13 06:57:33;;;;;;;4.88;2.65;;;8.10;99.90;;;;;;4162147;28;20044;-47
2022/04/13 06:59:35;;;;;;;6.35;2.42;;;8.30;99.90;;;;;;4162198;28;20567;-47
2022/04/13 07:01:37;;;;;;;2.35;2.15;;;8.40;99.90;;;;;;4162208;28;20501;-47
2022/04/13 07:03:39;;;;;;;2.63;2.40;;;8.60;99.90;;;;;;4161991;28;20075;-47
2022/04/13 07:05:42;;;;;;;5.35;3.00;;;8.70;99.90;;;;;;4167081;28;20045;-46
2022/04/13 07:07:44;;;;;;;4.15;3.10;;;8.90;99.90;;;;;;4167315;28;20041;-48
2022/04/13 07:09:46;;;;;;;3.22;2.55;;;9.10;99.90;;;;;;4163626;28;20081;-48
2022/04/13 07:11:48;;;;;;;2.58;2.47;;;9.20;99.90;;;;;;4164842;28;20040;-48
2022/04/13 07:13:50;;;;;;;3.28;3.00;;;9.30;99.90;;;;;;4161923;28;20043;-47
2022/04/13 07:15:52;;;;;;;1.88;1.77;;;9.40;99.90;;;;;;4161812;28;20088;-47
2022/04/13 07:17:56;;;;;;;8.48;2.78;;;9.70;99.90;;;;;;4161846;28;20045;-47
2022/04/13 07:19:58;;;;;;;2.90;2.60;;;10.00;99.90;;;;;;4161847;28;20047;-46
2022/04/13 07:22:01;;;;;;;4.03;1.88;;;10.10;99.90;;;;;;4161553;28;20076;-47
2022/04/13 07:24:10;;;;;;;1.48;1.48;;;10.20;99.90;;;;;;4161812;28;20493;-46
2022/04/13 07:26:13;;;;;;;1.15;1.15;;;10.50;99.90;;;;;;4178171;28;20127;-48
2022/04/13 07:28:15;;;;;;;1.50;1.40;;;10.60;99.90;;;;;;4163934;28;20333;-49
2022/04/13 07:30:18;;;;;;;2.83;1.88;;;10.70;99.90;;;;;;4161964;28;20045;-47
2022/04/13 07:32:20;;;;;;;1.50;1.30;;;10.90;99.90;;;;;;4161395;28;20537;-47
2022/04/13 07:34:22;;;;;;;2.35;1.50;;;11.10;99.90;;;;;;4161615;28;20048;-47
2022/04/13 07:36:24;;;;;;;1.40;1.40;;;11.30;99.90;;;;;;4161476;28;20038;-48
2022/04/13 07:38:26;;;;;;;1.55;1.55;;;11.50;99.90;;;;;;4161445;28;20045;-47
2022/04/13 07:40:28;;;;;;;2.15;1.10;;;11.60;99.90;;;;;;4161311;28;20091;-46
2022/04/13 07:42:30;;;;;;;2.15;1.10;;;11.70;99.90;;;;;;4161627;28;20095;-47
2022/04/13 07:44:32;;;;;;;1.10;1.10;;;12.00;99.90;;;;;;4162882;28;20056;-49
2022/04/13 07:46:54;;;;;;;2.75;1.20;;;12.20;99.90;;;;;;4173257;28;20124;-47
2022/04/13 07:48:59;;;;;;;2.15;1.00;;;12.40;99.90;;;;;;4161096;28;20404;-46
2022/04/13 07:51:01;;;;;;;1.45;1.20;;;12.50;99.90;;;;;;4162854;28;20045;-47
2022/04/13 07:53:03;;;;;;;1.52;1.30;;;12.50;99.90;;;;;;4160806;28;20033;-47
2022/04/13 07:55:06;;;;;;;2.65;1.63;;;12.80;99.90;;;;;;4161448;28;20048;-46
2022/04/13 07:57:08;;;;;;;3.53;1.67;;;13.00;99.90;;;;;;4160874;28;20548;-47
2022/04/13 07:59:10;;;;;;;3.92;1.30;;;13.20;99.90;;;;;;4160965;28;20048;-48
2022/04/13 08:01:14;;;;;;;3.13;1.90;;;13.20;99.00;;;;;;4164746;28;20048;-47
2022/04/13 08:03:16;;;;;;;3.55;1.00;;;13.50;99.40;;;;;;4160753;28;20065;-47
2022/04/13 08:05:35;;;;;;;2.25;1.10;;;13.70;99.20;;;;;;4161364;28;20045;-46
2022/04/13 08:07:38;;;;;;;1.23;1.13;;;13.80;97.70;;;;;;4165619;28;20103;-47
2022/04/13 08:09:40;;;;;;;;;;;13.90;98.70;;;;;;4161899;28;20273;-46
2022/04/13 08:11:44;;;;;;;1.88;1.10;;;14.20;98.70;;;;;;4167248;28;20027;-46
2022/04/13 08:13:46;;;;;;;1.02;1.02;;;14.40;98.00;;;;;;4162049;28;20041;-47
2022/04/13 08:15:50;;;;;;;1.95;1.05;;;14.70;96.80;;;;;;4161108;28;20041;-46
2022/04/13 08:17:52;;;;;;;4.75;1.45;;;14.90;96.90;;;;;;4160768;28;20037;-47
2022/04/13 08:19:54;;;;;;;1.30;1.20;;;15.00;97.00;;;;;;4160557;28;20144;-47
2022/04/13 08:21:57;;;;;;;1.27;1.25;;;15.20;96.30;;;;;;4161222;28;20567;-47
2022/04/13 08:23:59;;;;;;;1.95;1.30;;;15.30;96.20;;;;;;4159168;28;20140;-48
2022/04/13 08:26:01;;;;;;;0.90;0.90;;;15.50;95.50;;;;;;4161021;28;20492;-46
2022/04/13 08:28:03;;;;;;;0.90;0.90;;;15.50;94.00;;;;;;4160914;28;20041;-48
2022/04/13 08:30:05;;;;;;;2.13;1.20;;;15.60;93.50;;;;;;4160775;28;20073;-46
2022/04/13 08:32:07;;;;;;;;;;;15.90;93.40;;;;;;4161151;28;20045;-45
2022/04/13 08:34:09;;;;;;;1.33;0.88;;;16.00;92.80;;;;;;4160437;28;20387;-46
2022/04/13 08:36:11;;;;;;;1.38;1.00;;;16.10;91.10;;;;;;4159410;28;20045;-45
2022/04/13 08:38:13;;;;;;;1.27;1.00;;;16.20;92.70;;;;;;4160641;28;20038;-45
2022/04/13 08:40:17;;;;;;;1.17;1.08;;;16.60;91.70;;;;;;4160739;28;20049;-44
2022/04/13 08:42:31;;;;;;;1.75;0.90;;;16.80;92.10;;;;;;4160370;28;20053;-45
2022/04/13 08:44:48;;;;;;;0.90;0.90;;;16.90;91.80;;;;;;4166858;28;20077;-45
2022/04/13 08:46:55;;;;;;;1.38;1.00;;;17.00;90.10;;;;;;4160834;28;20041;-45
2022/04/13 08:49:03;;;;;;;2.17;0.93;;;17.20;91.20;;;;;;4159983;28;20088;-45
2022/04/13 08:51:26;;;;;;;1.10;1.10;;;17.40;90.70;;;;;;4160316;28;20072;-45
2022/04/13 08:53:32;;;;;;;0.90;0.90;;;17.50;88.60;;;;;;4175206;28;20041;-45
2022/04/13 08:55:37;;;;;;;1.25;0.90;;;17.60;90.20;;;;;;4160685;28;20038;-45
2022/04/13 08:57:41;;;;;;;1.73;1.02;;;17.80;90.30;;;;;;4168312;28;20049;-45
2022/04/13 09:00:04;;;;;;;0.90;0.90;;;18.00;89.10;;;;;;4165480;28;20091;-45
2022/04/13 09:02:38;;;;;;;;;;;18.00;88.30;;;;;;4160768;28;20501;-46
2022/04/13 09:04:43;;;;;;;1.00;1.00;;;18.00;83.90;;;;;;4155329;28;19921;-45
2022/04/13 09:06:47;;;;;;;1.20;1.20;;;18.40;84.70;;;;;;4174274;28;20487;-45
2022/04/13 09:08:54;;;;;;;0.93;0.90;;;18.50;81.00;;;;;;4165139;28;20138;-46
2022/04/13 09:10:57;;;;;;;1.05;0.93;;;18.50;82.20;;;;;;4174085;28;20556;-47
2022/04/13 09:13:00;;;;;;;4.68;1.15;;;18.60;83.00;;;;;;4172520;28;20258;-45
2022/04/13 09:15:05;;;;;;;2.50;0.80;;;19.00;82.70;;;;;;4172967;28;20195;-45
2022/04/13 09:17:08;;;;;;;0.93;0.90;;;19.10;79.20;;;;;;4163841;28;20076;-45
2022/04/13 09:19:11;;;;;;;1.50;1.10;;;19.30;83.70;;;;;;4173876;28;20531;-46
2022/04/13 09:21:14;;;;;;;;;;;19.70;84.00;;;;;;4175142;28;20087;-46
2022/04/13 09:23:16;;;;;;;1.20;1.00;;;20.00;83.30;;;;;;4163336;28;19921;-46
2022/04/13 09:25:20;;;;;;;1.38;0.90;;;20.40;80.60;;;;;;4169869;28;20044;-45
2022/04/13 09:27:23;;;;;;;1.40;0.77;;;20.60;81.40;;;;;;4168070;28;20484;-45
2022/04/13 09:29:26;;;;;;;0.80;0.80;;;21.00;85.10;;;;;;4157250;28;20067;-45
2022/04/13 09:31:28;;;;;;;0.60;0.60;;;21.30;81.90;;;;;;4173145;28;20049;-45
2022/04/13 09:33:31;;;;;;;1.35;0.63;;;21.10;73.60;;;;;;4162594;28;20140;-46
2022/04/13 09:35:34;;;;;;;0.85;0.70;;;20.60;73.60;;;;;;4170377;28;20041;-46
2022/04/13 09:37:37;;;;;;;3.50;0.70;;;20.80;75.30;;;;;;4174072;28;20037;-46
2022/04/13 09:39:40;;;;;;;1.52;0.70;;;21.10;72.00;;;;;;4169976;28;20144;-45
2022/04/13 09:41:42;;;;;;;1.17;0.70;;;21.30;74.80;;;;;;4160042;28;20095;-47
2022/04/13 09:43:54;;;;;;;0.95;0.90;;;21.00;73.90;;;;;;4167152;28;20048;-45
2022/04/13 09:45:57;;;;;;;1.70;0.60;;;20.60;71.40;;;;;;4175000;28;20049;-45
2022/04/13 09:48:03;;;;;;;0.70;0.70;;;20.70;75.50;;;;;;4166352;28;20053;-45
2022/04/13 09:50:05;;;;;;;0.70;0.70;;;20.80;67.90;;;;;;4166053;28;20055;-46
2022/04/13 09:52:07;;;;;;;;;;;20.80;67.00;;;;;;4165686;28;20041;-45
2022/04/13 09:54:13;;;;;;;0.77;0.70;;;20.60;65.00;;;;;;4164511;28;19960;-46
2022/04/13 09:56:18;;;;;;;2.88;0.63;;;20.90;67.90;;;;;;4160181;28;20084;-45
2022/04/13 09:58:25;;;;;;;1.00;1.00;;;21.40;66.70;;;;;;4159699;28;20048;-48
2022/04/13 10:00:27;;;;;;;0.70;0.70;;;21.40;66.40;;;;;;4159577;28;20042;-45
2022/04/13 10:02:43;;;;;;;0.70;0.70;;;21.00;65.00;;;;;;4160110;28;20072;-46
2022/04/13 10:04:45;;;;;;;0.98;0.70;;;21.30;67.00;;;;;;4159378;28;20057;-45
2022/04/13 10:06:48;;;;;;;0.70;0.70;;;21.80;68.70;;;;;;4159652;28;20042;-45
2022/04/13 10:08:59;;;;;;;0.60;0.60;;;22.10;67.20;;;;;;4163615;28;20037;-45
2022/04/13 10:11:07;;;;;;;0.70;0.70;;;21.90;63.10;;;;;;4158394;28;20041;-45
2022/04/13 10:13:10;;;;;;;1.17;1.17;;;21.50;62.80;;;;;;4158730;28;20398;-46
2022/04/13 10:15:13;;;;;;;0.60;0.60;;;21.40;64.30;;;;;;4164738;28;20067;-45
2022/04/13 10:17:20;;;;;;;;;;;21.60;65.00;;;;;;4169352;28;20041;-45
2022/04/13 10:19:22;;;;;;;0.95;0.60;;;21.60;63.60;;;;;;4164080;28;20381;-45
2022/04/13 10:21:40;;;;;;;;;;;21.80;66.00;;;;;;4164748;28;20029;-45
2022/04/13 10:23:43;;;;;;;0.60;0.60;;;21.90;64.30;;;;;;4162565;28;20067;-45
2022/04/13 10:25:45;;;;;;;0.50;0.50;;;22.00;63.70;;;;;;4169693;28;20749;-45
2022/04/13 10:27:59;;;;;;;0.50;0.50;;;22.20;62.10;;;;;;4162072;28;20135;-45
2022/04/13 10:30:06;;;;;;;0.50;0.50;;;22.20;66.00;;;;;;4161840;28;20099;-45
2022/04/13 10:32:15;;;;;;;0.50;0.50;;;22.60;60.80;;;;;;4164460;28;20049;-45
2022/04/13 10:34:27;;;;;;;0.40;0.40;;;22.60;59.80;;;;;;4164549;28;20748;-44
2022/04/13 10:36:31;;;;;;;0.50;0.50;;;22.90;61.90;;;;;;4163103;28;20140;-46
2022/04/13 10:38:33;;;;;;;1.08;0.50;;;22.90;55.60;;;;;;4176402;28;20072;-45
2022/04/13 10:40:42;;;;;;;0.68;0.50;;;22.70;57.60;;;;;;4174882;28;20166;-45
2022/04/13 10:42:48;;;;;;;0.50;0.50;;;22.60;56.00;;;;;;4165755;28;20046;-45
2022/04/13 10:44:54;;;;;;;0.50;0.50;;;22.60;61.30;;;;;;4170804;28;20526;-47
2022/04/13 10:47:02;;;;;;;0.50;0.50;;;22.70;59.30;;;;;;4173726;28;20049;-45
2022/04/13 10:49:08;;;;;;;0.50;0.50;;;22.80;54.60;;;;;;4172560;28;20287;-45
2022/04/13 10:51:13;;;;;;;2.47;0.50;;;23.10;59.10;;;;;;4174152;28;20122;-46
2022/04/13 10:53:15;;;;;;;0.50;0.50;;;23.30;59.30;;;;;;4164554;28;20033;-46